Date,TemperatureHighF,TemperatureAvgF,TemperatureLowF,DewpointHighF,DewpointAvgF,DewpointLowF,HumidityHigh,HumidityAvg,HumidityLow,PressureMaxIn,PressureMinIn,WindSpeedMaxMPH,WindSpeedAvgMPH,GustSpeedMaxMPH,PrecipitationSumIn
2013-5-1,73.0,60.2,42.0,55.0,48.7,36.0,83,67,49,30.24,29.75,8,3,0,0.00
2013-5-2,41.0,37.1,34.0,39.0,35.4,32.0,95,94,84,30.46,30.22,9,5,0,0.00
2013-5-3,41.0,38.9,37.0,37.0,35.8,34.0,93,89,79,30.10,29.96,7,4,0,0.00
2013-5-4,50.0,42.8,36.0,48.0,40.9,34.0,95,93,88,30.07,29.88,6,3,0,0.00
2013-5-5,55.0,49.4,45.0,51.0,46.7,43.0,95,91,84,30.15,30.06,4,1,0,0.00
2013-5-6,68.0,56.1,50.0,58.0,51.7,48.0,95,86,68,30.13,30.02,3,0,0,0.00
2013-5-7,76.0,59.0,42.0,59.0,49.2,41.0,96,74,41,30.09,29.95,6,0,0,0.00
2013-5-8,76.0,64.0,50.0,61.0,56.2,47.0,92,77,55,29.96,29.85,12,3,0,0.00
2013-5-9,71.0,62.9,57.0,63.0,58.9,54.0,95,87,70,29.91,29.79,1,0,0,0.00
2013-5-10,71.0,58.3,50.0,55.0,49.9,-99.9,94,79,49,30.05,29.91,5,1,0,0.00
2013-5-11,69.0,56.0,45.0,48.0,37.8,-99.9,95,58,27,30.24,30.03,8,2,0,0.00
2013-5-12,68.0,51.0,33.0,40.0,31.9,26.0,92,55,23,30.29,30.13,1,0,0,0.00
2013-5-13,79.0,62.2,42.0,57.0,47.3,37.0,93,63,34,30.16,29.89,9,3,0,0.00
2013-5-14,96.0,77.5,58.0,58.0,53.3,47.0,87,49,21,29.88,29.70,15,5,0,0.00
2013-5-15,88.0,75.8,61.0,66.0,59.3,52.0,80,58,39,29.83,29.72,11,3,0,0.00
2013-5-16,83.0,67.8,60.0,66.0,43.0,-99.9,94,73,50,29.84,29.74,6,1,0,0.00
2013-5-17,80.0,68.1,57.0,66.0,56.6,-99.9,94,78,56,29.90,29.81,5,1,0,0.00
2013-5-18,84.0,73.1,58.0,70.0,64.6,56.0,95,76,59,29.89,29.67,9,3,0,0.00
2013-5-19,78.0,66.1,61.0,72.0,63.0,60.0,95,90,76,29.74,29.59,10,2,0,0.00
2013-5-20,80.0,73.1,62.0,68.0,62.0,56.0,92,69,53,29.69,29.56,8,3,0,0.00
2013-5-21,74.0,66.7,57.0,58.0,52.9,49.0,86,62,46,29.72,29.62,4,1,0,0.00
2013-5-22,67.0,59.7,53.0,55.0,51.2,48.0,87,74,61,29.93,29.70,1,0,0,0.00
2013-5-23,70.0,60.0,53.0,58.0,52.7,49.0,89,77,60,30.22,29.93,1,0,0,0.00
2013-5-24,73.0,60.9,44.0,56.0,49.5,42.0,95,70,44,30.31,30.10,11,3,0,0.00
2013-5-25,85.0,72.4,61.0,67.0,60.0,48.0,79,66,51,30.13,29.95,11,2,0,0.00
2013-5-26,85.0,76.5,68.0,71.0,67.6,64.0,89,75,59,29.99,29.81,10,3,0,0.00
2013-5-27,76.0,73.1,71.0,70.0,66.2,64.0,87,79,75,29.86,29.59,11,6,0,0.00
2013-5-28,82.0,72.9,66.0,75.0,68.6,61.0,95,87,77,29.74,29.59,9,3,0,0.00
2013-5-29,80.0,74.3,66.0,72.0,67.4,63.0,91,80,71,29.73,29.56,14,7,0,0.00
2013-5-30,74.0,66.9,63.0,67.0,62.8,60.0,95,87,75,29.68,29.51,13,3,0,0.00
2013-5-31,79.0,68.5,63.0,69.0,64.1,59.0,93,86,69,29.73,29.55,16,1,0,0.00